Data

From:  To:  PST   UTC
Description Unit Station From To Min. Max. Avg.
Water Temperature at Buoy °C Buoy 2024-02-20 08:22 2024-02-23 01:26 7.02 8.48 7.42
Weather: Air Temperature at Buoy °C Buoy 2024-02-20 08:32 2024-02-23 08:17 6.39 12.44 8.88
Wind Speed at Buoy m/s Buoy 2024-02-20 08:32 2024-02-23 08:17 0 5.99 1.87
Wind Direction at Buoy Deg. Buoy 2024-02-20 08:32 2024-02-23 08:17 6.25 359.8 185.17
Weather: Air Pressure at Buoy mb Buoy 2024-02-20 08:32 2024-02-23 08:17 1009.06 1027.95 1017.65
Weather: Relative Humidity at Buoy % Buoy 2024-02-20 08:32 2024-02-23 08:17 47.09 100 82
Weather: Solar Radiation at Buoy W/m² Buoy 2024-02-20 08:32 2024-02-23 08:17 0 578 72.03
Flow at Cedar River ft³/s Cedar River 2024-02-20 08:30 2024-02-23 08:15 519 581 538.52
Water Temperature at Cedar River °C Cedar River 2024-02-20 08:30 2024-02-23 08:15 6.9 8.9 7.82
Stage at 37A ft 37A 2024-02-20 09:00 2024-02-23 08:00 1.87 2.11 1.94
Flow at 37A ft³/s 37A 2024-02-20 09:00 2024-02-23 08:00 22.5 35.4 25.44
Flow at Sammish River ft³/s Sammamish River-51T 2024-02-20 09:00 2024-02-23 08:00 224.5 342.5 252.91
Water Temperature at Sammish River °C Sammamish River-51T 2024-02-20 09:00 2024-02-23 08:00 6.97 8.78 7.97
Stage at 34A ft 34a 2024-02-20 09:00 2024-02-23 08:00 1.28 1.69 1.37
Flow at 34A ft³/s 34a 2024-02-20 09:00 2024-02-23 08:00 7.7 19 9.74
Water Temperature at 34A °C 34a 2024-02-20 09:00 2024-02-23 08:00 8.85 9.62 9.25
Stage at 35C ft 35C 2024-02-20 09:00 2024-02-22 09:00 3.09 3.2 3.11
Flow at 35C ft³/s 35C 2024-02-20 09:00 2024-02-22 09:00 12.29 17.67 13.07
Water Temperature at 35C °C 35C 2024-02-20 09:00 2024-02-23 08:00 7.26 9.07 8.31
Stage at COB-06C ft COB-06C 2024-02-20 09:00 2024-02-23 08:00 0.66 1.04 0.73
Flow at COB-06C ft³/s COB-06C 2024-02-20 09:00 2024-02-23 08:00 8.9 26.25 11.44
Stage at 27A ft 27a 2024-02-20 09:00 2024-02-23 08:00 3.15 3.71 3.29
Flow at 27A ft³/s 27a 2024-02-20 09:00 2024-02-23 08:00 1.7 17.75 4.64
Water Temperature at 27A °C 27a 2024-02-20 09:00 2024-02-23 08:00 8.05 9.59 8.96
Weather: Air Temperature at 27A °C 27a 2024-02-20 09:00 2024-02-23 08:00 5.61 14.93 8.64
Stage at 58A ft 58a 2024-02-20 09:00 2024-02-23 08:00 1.57 1.92 1.66
Flow at 58A ft³/s 58a 2024-02-20 09:00 2024-02-23 08:00 8.8 25 12.17
Water Temperature at 58A °C 58a 2024-02-20 09:00 2024-02-23 08:00 7.65 9.88 8.93
Weather: Air Temperature at 58A °C 58a 2024-02-20 09:00 2024-02-23 08:00 5.3 19.84 10.57
Stage at Lock ft Lock 2024-02-20 09:00 2024-02-23 08:00 20.17 20.27 20.21
Wind Speed at Tacoma m/s Tacoma Airport 2024-02-20 08:32 2024-02-23 08:17 0 5.99 1.87
Wind Direction at Tacoma Deg. Tacoma Airport 2024-02-20 08:32 2024-02-23 08:17 6.25 359.8 185.17
Red lines represent missing data